createdAt,value
2017-10-28T00:00:47.809Z,13.37
2017-10-28T00:03:16.150Z,15.83
2017-10-28T00:05:43.687Z,11.20
2017-10-28T00:08:11.210Z,10.10
2017-10-28T00:10:38.766Z,15.13
2017-10-28T00:13:06.286Z,12.47
2017-10-28T00:15:34.601Z,14.43
2017-10-28T00:18:02.158Z,14.57
2017-10-28T00:20:29.699Z,16.13
2017-10-28T00:22:58.030Z,14.27
2017-10-28T00:25:25.541Z,13.20
2017-10-28T00:27:53.066Z,7.90
2017-10-28T00:30:26.296Z,12.90
2017-10-28T00:32:59.397Z,22.50
2017-10-28T00:35:32.583Z,16.73
2017-10-28T00:38:00.129Z,12.27
2017-10-28T00:40:28.448Z,12.40
2017-10-28T00:42:55.998Z,15.17
2017-10-28T00:45:23.570Z,16.80
2017-10-28T00:47:51.856Z,21.50
2017-10-28T00:50:20.145Z,16.67
2017-10-28T00:52:48.471Z,14.67
2017-10-28T00:55:15.993Z,17.73
2017-10-28T00:57:44.269Z,15.50
2017-10-28T01:00:11.815Z,17.10
2017-10-28T01:02:39.330Z,13.30
2017-10-28T01:05:07.661Z,13.00
2017-10-28T01:07:35.180Z,17.50
2017-10-28T01:10:02.743Z,13.50
2017-10-28T01:12:30.303Z,16.23
2017-10-28T01:14:57.822Z,16.93
2017-10-28T01:17:25.348Z,21.43
2017-10-28T01:19:52.891Z,11.20
2017-10-28T01:22:20.416Z,16.07
2017-10-28T01:24:48.758Z,21.73
2017-10-28T01:27:16.281Z,17.03
2017-10-28T01:29:43.822Z,12.40
2017-10-28T01:32:11.390Z,15.70
2017-10-28T01:34:38.914Z,19.13
2017-10-28T01:37:06.439Z,16.10
2017-10-28T01:39:33.998Z,10.70
2017-10-28T01:42:01.522Z,18.07
2017-10-28T01:44:29.810Z,16.10
2017-10-28T01:46:58.143Z,12.43
2017-10-28T01:49:25.679Z,13.20
2017-10-28T01:51:53.194Z,14.87
2017-10-28T01:54:20.814Z,13.97
2017-10-28T01:56:49.101Z,18.57
2017-10-28T01:59:16.638Z,10.80
2017-10-28T02:01:44.193Z,16.40
2017-10-28T02:04:11.741Z,14.60
2017-10-28T02:06:39.276Z,8.23
2017-10-28T02:09:06.835Z,14.07
2017-10-28T02:11:34.351Z,18.00
2017-10-28T02:14:02.002Z,11.67
2017-10-28T02:16:29.546Z,16.33
2017-10-28T02:18:57.066Z,10.53
2017-10-28T02:21:24.652Z,18.33
2017-10-28T02:23:52.203Z,15.97
2017-10-28T02:26:19.767Z,13.50
2017-10-28T02:28:48.055Z,12.40
2017-10-28T02:31:16.338Z,12.43
2017-10-28T02:33:44.694Z,15.87
2017-10-28T02:36:12.223Z,20.60
2017-10-28T02:38:39.767Z,15.70
2017-10-28T02:41:07.326Z,21.27
2017-10-28T02:43:34.849Z,17.83
2017-10-28T02:46:02.365Z,20.60
2017-10-28T02:48:29.931Z,14.13
2017-10-28T02:50:57.458Z,19.10
2017-10-28T02:53:24.996Z,18.93
2017-10-28T02:55:53.331Z,14.60
2017-10-28T02:58:20.850Z,12.20
2017-10-28T03:00:48.376Z,16.73
2017-10-28T03:03:16.035Z,17.43
2017-10-28T03:05:43.594Z,13.00
2017-10-28T03:08:11.885Z,9.90
2017-10-28T03:10:39.428Z,16.40
2017-10-28T03:13:07.772Z,19.50
2017-10-28T03:15:35.338Z,14.57
2017-10-28T03:18:02.861Z,19.00
2017-10-28T03:20:30.391Z,14.07
2017-10-28T03:22:57.957Z,16.27
2017-10-28T03:25:25.482Z,11.13
2017-10-28T03:27:53.790Z,10.43
2017-10-28T03:30:21.386Z,12.73
2017-10-28T03:32:48.914Z,16.70
2017-10-28T03:35:17.197Z,9.13
2017-10-28T03:37:44.777Z,14.60
2017-10-28T03:40:12.298Z,13.60
2017-10-28T03:42:39.832Z,14.70
2017-10-28T03:45:08.150Z,13.07
2017-10-28T03:47:35.694Z,8.40
2017-10-28T03:50:04.110Z,12.30
2017-10-28T03:52:31.629Z,12.23
2017-10-28T03:54:59.154Z,14.03
2017-10-28T03:57:26.710Z,11.53
2017-10-28T03:59:54.241Z,15.07
2017-10-28T04:02:21.779Z,14.10
2017-10-28T04:04:49.325Z,9.07
2017-10-28T04:07:16.845Z,10.73
2017-10-28T04:09:44.409Z,16.53
2017-10-28T04:12:12.696Z,10.70
2017-10-28T04:14:40.214Z,12.87
2017-10-28T04:17:08.530Z,10.70
2017-10-28T04:19:36.058Z,13.63
2017-10-28T04:22:03.630Z,9.83
2017-10-28T04:24:31.149Z,10.00
2017-10-28T04:26:58.685Z,11.73
2017-10-28T04:29:26.997Z,14.13
2017-10-28T04:31:54.632Z,17.37
2017-10-28T04:34:22.242Z,15.53
2017-10-28T04:36:49.773Z,13.00
2017-10-28T04:39:17.296Z,16.60
2017-10-28T04:41:44.860Z,16.93
2017-10-28T04:44:12.378Z,11.30
2017-10-28T04:46:39.894Z,12.33
2017-10-28T04:49:08.236Z,11.70
2017-10-28T04:51:35.753Z,12.93
2017-10-28T04:54:04.041Z,10.20
2017-10-28T04:56:32.374Z,16.67
2017-10-28T04:58:59.977Z,11.20
2017-10-28T05:01:27.500Z,12.20
2017-10-28T05:03:55.063Z,14.57
2017-10-28T05:06:22.635Z,24.37
2017-10-28T05:08:50.178Z,15.77
2017-10-28T05:11:17.717Z,13.13
2017-10-28T05:13:45.307Z,12.33
2017-10-28T05:16:12.839Z,10.13
2017-10-28T05:18:40.360Z,12.37
2017-10-28T05:21:07.952Z,26.27
2017-10-28T05:23:36.248Z,14.07
2017-10-28T05:26:03.823Z,12.80
2017-10-28T05:28:31.393Z,13.10
2017-10-28T05:30:58.930Z,11.10
2017-10-28T05:33:26.504Z,15.77
2017-10-28T05:35:54.033Z,11.33
2017-10-28T05:38:21.585Z,10.77
2017-10-28T05:40:49.120Z,12.73
2017-10-28T05:43:16.680Z,11.60
2017-10-28T05:45:44.202Z,7.80
2017-10-28T05:48:11.774Z,11.77
2017-10-28T05:50:39.364Z,11.33
2017-10-28T05:53:06.906Z,9.90
2017-10-28T05:55:35.246Z,29.37
2017-10-28T05:58:02.772Z,10.90
2017-10-28T06:00:30.289Z,14.43
2017-10-28T06:02:57.852Z,15.70
2017-10-28T06:05:25.480Z,15.20
2017-10-28T06:07:53.760Z,16.63
2017-10-28T06:10:22.098Z,19.33
2017-10-28T06:12:49.635Z,15.00
2017-10-28T06:15:17.945Z,16.73
2017-10-28T06:17:45.529Z,20.40
2017-10-28T06:20:13.072Z,18.53
2017-10-28T06:22:40.607Z,19.53
2017-10-28T06:25:08.179Z,14.50
2017-10-28T06:27:35.705Z,21.00
2017-10-28T06:30:03.272Z,17.70
2017-10-28T06:32:30.853Z,20.50
2017-10-28T06:34:58.387Z,15.07
2017-10-28T06:37:26.528Z,20.27
2017-10-28T06:39:54.055Z,18.10
2017-10-28T06:42:21.625Z,16.17
2017-10-28T06:44:49.918Z,16.67
2017-10-28T06:47:18.227Z,17.23
2017-10-28T06:49:45.787Z,24.63
2017-10-28T06:52:14.086Z,23.93
2017-10-28T06:54:41.680Z,19.80
2017-10-28T06:57:09.206Z,22.43
2017-10-28T06:59:37.665Z,20.63
2017-10-28T07:02:05.354Z,18.20
2017-10-28T07:04:33.644Z,21.63
2017-10-28T07:07:01.226Z,20.03
2017-10-28T07:09:29.707Z,17.30
2017-10-28T07:11:57.318Z,16.27
2017-10-28T07:14:24.878Z,12.63
2017-10-28T07:16:52.423Z,20.40
2017-10-28T07:19:23.610Z,17.50
2017-10-28T07:21:54.874Z,18.27
2017-10-28T07:24:23.418Z,18.57
2017-10-28T07:26:50.943Z,17.07
2017-10-28T07:29:18.481Z,17.93
2017-10-28T07:31:46.064Z,30.00
2017-10-28T07:34:14.692Z,22.70
2017-10-28T07:36:42.895Z,20.57
2017-10-28T07:39:11.190Z,18.77
2017-10-28T07:41:38.773Z,19.20
2017-10-28T07:44:06.314Z,16.87
2017-10-28T07:46:33.956Z,18.70
2017-10-28T07:49:01.527Z,16.17
2017-10-28T07:51:29.051Z,17.60
2017-10-28T07:53:56.636Z,23.37
2017-10-28T07:56:24.945Z,23.47
2017-10-28T07:58:52.512Z,17.37
2017-10-28T08:01:20.045Z,19.60
2017-10-28T08:03:53.211Z,22.53
2017-10-28T08:06:20.898Z,33.93
2017-10-28T08:08:48.427Z,14.50
2017-10-28T08:11:15.945Z,20.90
2017-10-28T08:13:44.301Z,19.10
2017-10-28T08:16:12.626Z,28.60
2017-10-28T08:18:40.195Z,17.23
2017-10-28T08:21:07.757Z,19.60
2017-10-28T08:23:35.369Z,22.17
2017-10-28T08:26:02.896Z,13.83
2017-10-28T08:28:31.240Z,15.87
2017-10-28T08:30:59.458Z,24.43
2017-10-28T08:33:26.981Z,12.57
2017-10-28T08:35:54.583Z,17.90
2017-10-28T08:38:22.114Z,27.10
2017-10-28T08:40:49.645Z,16.03
2017-10-28T08:43:17.277Z,16.53
2017-10-28T08:45:44.888Z,17.97
2017-10-28T08:48:12.430Z,15.70
2017-10-28T08:50:40.769Z,16.40
2017-10-28T08:53:08.295Z,12.20
2017-10-28T08:55:36.845Z,24.43
2017-10-28T08:58:04.383Z,19.23
2017-10-28T09:00:37.908Z,16.07
2017-10-28T09:03:05.446Z,23.23
2017-10-28T09:05:34.723Z,23.50
2017-10-28T09:08:03.691Z,17.73
2017-10-28T09:10:32.295Z,15.90
2017-10-28T09:12:59.878Z,14.30
2017-10-28T09:15:27.405Z,15.03
2017-10-28T09:17:59.397Z,14.30
2017-10-28T09:20:27.019Z,26.23
2017-10-28T09:22:54.554Z,15.60
2017-10-28T09:25:22.110Z,19.20
2017-10-28T09:27:50.416Z,20.50
2017-10-28T09:30:18.107Z,16.80
2017-10-28T09:32:47.867Z,14.50
2017-10-28T09:35:15.422Z,13.17
2017-10-28T09:37:43.927Z,16.77
2017-10-28T09:40:11.454Z,15.80
2017-10-28T09:42:39.026Z,16.03
2017-10-28T09:45:06.561Z,19.53
2017-10-28T09:47:34.095Z,11.27
2017-10-28T09:50:01.761Z,15.63
2017-10-28T09:52:32.201Z,19.80
2017-10-28T09:54:59.778Z,30.67
2017-10-28T09:57:27.386Z,15.23
2017-10-28T09:59:54.958Z,15.17
2017-10-28T10:02:23.275Z,15.37
2017-10-28T10:04:50.882Z,11.17
2017-10-28T10:07:19.398Z,17.00
2017-10-28T10:09:46.971Z,10.53
2017-10-28T10:12:14.498Z,15.80
2017-10-28T10:14:42.795Z,17.63
2017-10-28T10:17:10.362Z,15.23
2017-10-28T10:19:37.940Z,15.47
2017-10-28T10:22:05.473Z,14.80
2017-10-28T10:24:33.044Z,14.63
2017-10-28T10:27:00.625Z,12.23
2017-10-28T10:29:32.027Z,15.10
2017-10-28T10:31:59.576Z,17.07
2017-10-28T10:34:27.926Z,12.37
2017-10-28T10:36:58.204Z,21.50
2017-10-28T10:39:25.756Z,12.30
2017-10-28T10:41:53.369Z,15.53
2017-10-28T10:44:20.902Z,12.83
2017-10-28T10:46:49.212Z,17.87
2017-10-28T10:49:16.826Z,18.23
2017-10-28T10:51:45.109Z,17.50
2017-10-28T10:54:12.697Z,20.33
2017-10-28T10:56:40.402Z,18.43
2017-10-28T10:59:07.941Z,17.23
2017-10-28T11:01:36.705Z,15.60
2017-10-28T11:04:04.249Z,18.30
2017-10-28T11:06:31.770Z,14.63
2017-10-28T11:09:00.198Z,13.80
2017-10-28T11:11:28.561Z,24.90
2017-10-28T11:13:56.164Z,17.77
2017-10-28T11:16:24.539Z,18.07
2017-10-28T11:18:52.421Z,14.43
2017-10-28T11:21:19.989Z,17.77
2017-10-28T11:23:47.587Z,20.27
2017-10-28T11:26:15.118Z,14.47
2017-10-28T11:28:42.642Z,13.50
2017-10-28T11:31:10.215Z,19.90
2017-10-28T11:33:37.753Z,16.03
2017-10-28T11:36:06.074Z,12.17
2017-10-28T11:38:33.645Z,15.63
2017-10-28T11:41:01.232Z,16.10
2017-10-28T11:43:28.792Z,27.13
2017-10-28T11:45:56.381Z,13.87
2017-10-28T11:48:23.912Z,10.40
2017-10-28T11:50:51.445Z,11.10
2017-10-28T11:53:24.629Z,18.03
2017-10-28T11:55:52.176Z,18.33
2017-10-28T11:58:20.370Z,14.70
2017-10-28T12:00:47.908Z,18.93
2017-10-28T12:03:15.449Z,15.07
2017-10-28T12:05:43.010Z,14.57
2017-10-28T12:08:10.558Z,13.60
2017-10-28T12:10:38.120Z,15.53
2017-10-28T12:13:05.643Z,20.73
2017-10-28T12:15:33.230Z,19.40
2017-10-28T12:18:00.745Z,13.47
2017-10-28T12:20:28.282Z,9.83
2017-10-28T12:22:56.622Z,19.03
2017-10-28T12:25:24.914Z,11.10
2017-10-28T12:27:54.224Z,10.93
2017-10-28T12:30:22.562Z,14.37
2017-10-28T12:32:50.339Z,12.40
2017-10-28T12:35:18.002Z,11.70
2017-10-28T12:37:45.570Z,14.40
2017-10-28T12:40:13.137Z,13.10
2017-10-28T12:42:40.840Z,13.17
2017-10-28T12:45:08.377Z,11.67
2017-10-28T12:47:35.918Z,11.23
2017-10-28T12:50:03.495Z,10.90
2017-10-28T12:52:31.067Z,11.33
2017-10-28T12:54:59.048Z,12.40
2017-10-28T12:57:27.963Z,14.77
2017-10-28T12:59:56.339Z,15.80
2017-10-28T13:02:23.874Z,11.33
2017-10-28T13:04:55.338Z,21.37
2017-10-28T13:07:23.351Z,10.37
2017-10-28T13:09:50.962Z,12.77
2017-10-28T13:12:18.739Z,17.23
2017-10-28T13:15:00.775Z,17.00
2017-10-28T13:17:28.615Z,11.83
2017-10-28T13:19:56.330Z,18.50
2017-10-28T13:22:24.162Z,25.87
2017-10-28T13:24:51.747Z,10.90
2017-10-28T13:27:19.280Z,9.07
2017-10-28T13:29:49.241Z,10.63
2017-10-28T13:32:22.876Z,15.43
2017-10-28T13:34:55.601Z,14.33
2017-10-28T13:37:28.158Z,8.47
2017-10-28T13:40:01.004Z,9.40
2017-10-28T13:42:33.992Z,9.77
2017-10-28T13:45:09.490Z,11.10
2017-10-28T13:47:41.257Z,8.67
2017-10-28T13:50:13.167Z,12.53
2017-10-28T13:52:45.832Z,14.27
2017-10-28T13:55:19.693Z,15.83
2017-10-28T13:57:51.534Z,9.93
2017-10-28T14:00:24.194Z,11.47
2017-10-28T14:02:55.466Z,13.77
2017-10-28T14:05:25.675Z,14.77
2017-10-28T14:07:59.469Z,14.83
2017-10-28T14:10:30.084Z,16.90
2017-10-28T14:12:59.287Z,12.03
2017-10-28T14:15:30.077Z,14.43
2017-10-28T14:18:00.235Z,10.33
2017-10-28T14:20:30.959Z,13.10
2017-10-28T14:22:58.907Z,11.83
2017-10-28T14:25:27.774Z,12.03
2017-10-28T14:27:55.352Z,14.13
2017-10-28T14:30:22.949Z,11.63
2017-10-28T14:32:51.772Z,15.63
2017-10-28T14:35:20.307Z,10.43
2017-10-28T14:37:49.069Z,13.80
2017-10-28T14:40:16.647Z,13.63
2017-10-28T14:42:44.717Z,10.00
2017-10-28T14:45:12.352Z,9.30
2017-10-28T14:47:40.669Z,17.70
2017-10-28T14:50:12.741Z,9.07
2017-10-28T14:52:41.063Z,10.00
2017-10-28T14:55:08.653Z,14.27
2017-10-28T14:57:37.411Z,12.03
2017-10-28T15:00:06.340Z,8.87
2017-10-28T15:02:35.556Z,10.20
2017-10-28T15:05:05.967Z,10.37
2017-10-28T15:07:33.606Z,15.67
2017-10-28T15:10:01.183Z,7.23
2017-10-28T15:12:28.774Z,15.00
2017-10-28T15:14:58.770Z,17.13
2017-10-28T15:17:26.440Z,9.63
2017-10-28T15:19:55.114Z,9.37
2017-10-28T15:22:23.639Z,9.10
2017-10-28T15:24:51.354Z,10.20
2017-10-28T15:27:19.889Z,10.57
2017-10-28T15:29:51.515Z,7.40
2017-10-28T15:32:19.190Z,10.23
2017-10-28T15:34:46.765Z,9.23
2017-10-28T15:37:14.313Z,8.07
2017-10-28T15:39:42.039Z,7.63
2017-10-28T15:42:10.093Z,11.60
2017-10-28T15:44:38.450Z,8.93
2017-10-28T15:47:06.044Z,6.63
2017-10-28T15:49:34.362Z,6.50
2017-10-28T15:52:07.415Z,10.63
2017-10-28T15:54:34.989Z,7.63
2017-10-28T15:57:02.673Z,9.83
2017-10-28T15:59:32.305Z,15.10
2017-10-28T16:02:01.266Z,7.00
2017-10-28T16:04:28.843Z,12.10
2017-10-28T16:06:56.399Z,5.90
2017-10-28T16:09:24.756Z,8.03
2017-10-28T16:11:52.896Z,9.30
2017-10-28T16:14:21.178Z,5.60
2017-10-28T16:16:51.068Z,12.00
2017-10-28T16:19:18.620Z,12.87
2017-10-28T16:21:48.637Z,11.57
2017-10-28T16:24:22.521Z,14.40
2017-10-28T16:26:50.727Z,10.40
2017-10-28T16:29:21.934Z,7.03
2017-10-28T16:31:52.197Z,8.23
2017-10-28T16:34:22.029Z,9.40
2017-10-28T16:36:51.646Z,10.30
2017-10-28T16:39:23.059Z,13.00
2017-10-28T16:41:51.538Z,8.30
2017-10-28T16:44:19.517Z,9.77
2017-10-28T16:46:49.714Z,15.47
2017-10-28T16:49:20.620Z,10.37
2017-10-28T16:51:57.384Z,13.27
2017-10-28T16:54:29.625Z,7.10
2017-10-28T16:56:58.323Z,9.67
2017-10-28T16:59:30.598Z,17.67
2017-10-28T17:01:58.876Z,8.70
2017-10-28T17:04:29.894Z,17.67
2017-10-28T17:07:04.658Z,10.37
2017-10-28T17:09:41.144Z,10.10
2017-10-28T17:12:10.834Z,9.83
2017-10-28T17:14:39.067Z,11.77
2017-10-28T17:17:09.226Z,12.07
2017-10-28T17:19:37.322Z,8.87
2017-10-28T17:22:07.907Z,9.60
2017-10-28T17:24:38.959Z,11.30
2017-10-28T17:27:08.950Z,7.87
2017-10-28T17:29:36.982Z,13.47
2017-10-28T17:32:07.666Z,17.47
2017-10-28T17:34:38.610Z,10.60
2017-10-28T17:37:10.182Z,11.53
2017-10-28T17:39:37.949Z,12.70
2017-10-28T17:42:05.509Z,14.80
2017-10-28T17:44:33.047Z,15.83
2017-10-28T17:47:00.684Z,14.43
2017-10-28T17:49:28.242Z,12.40
2017-10-28T17:51:55.774Z,11.53
2017-10-28T17:54:25.385Z,16.03
2017-10-28T17:56:52.974Z,12.07
2017-10-28T17:59:20.509Z,13.90
2017-10-28T18:01:48.842Z,16.30
2017-10-28T18:04:16.369Z,23.63
2017-10-28T18:06:43.931Z,26.20
2017-10-28T18:09:11.517Z,16.80
2017-10-28T18:11:39.767Z,12.23
2017-10-28T18:14:08.225Z,13.07
2017-10-28T18:16:35.913Z,17.13
2017-10-28T18:19:03.458Z,14.77
2017-10-28T18:21:31.039Z,13.93
2017-10-28T18:23:58.650Z,12.87
2017-10-28T18:26:27.950Z,13.13
2017-10-28T18:28:55.516Z,16.53
2017-10-28T18:31:23.886Z,20.13
2017-10-28T18:33:51.433Z,19.17
2017-10-28T18:36:19.037Z,18.80
2017-10-28T18:38:49.188Z,14.97
2017-10-28T18:41:16.757Z,15.13
2017-10-28T18:43:44.311Z,18.70
2017-10-28T18:46:11.898Z,14.97
2017-10-28T18:48:41.127Z,15.20
2017-10-28T18:51:08.717Z,18.47
2017-10-28T18:53:36.307Z,17.13
2017-10-28T18:56:03.884Z,13.80
2017-10-28T18:58:31.464Z,16.50
2017-10-28T19:00:59.084Z,19.60
2017-10-28T19:03:26.666Z,17.67
2017-10-28T19:05:54.223Z,13.73
2017-10-28T19:08:21.791Z,22.47
2017-10-28T19:10:52.718Z,21.70
2017-10-28T19:13:20.525Z,21.57
2017-10-28T19:15:48.061Z,21.80
2017-10-28T19:18:15.697Z,18.20
2017-10-28T19:20:43.231Z,26.70
2017-10-28T19:23:11.648Z,25.50
2017-10-28T19:25:39.198Z,19.00
2017-10-28T19:28:06.730Z,18.40
2017-10-28T19:30:35.053Z,20.60
2017-10-28T19:33:02.598Z,18.60
2017-10-28T19:35:30.182Z,27.33
2017-10-28T19:37:59.058Z,19.10
2017-10-28T19:40:27.407Z,23.20
2017-10-28T19:42:58.635Z,18.80
2017-10-28T19:45:27.179Z,22.80
2017-10-28T19:47:54.745Z,22.93
2017-10-28T19:50:22.324Z,34.03
2017-10-28T19:52:49.861Z,24.10
2017-10-28T19:55:18.689Z,33.40
2017-10-28T19:57:46.265Z,20.77
2017-10-28T20:00:13.810Z,24.70
2017-10-28T20:02:42.359Z,20.70
2017-10-28T20:05:10.705Z,27.00
2017-10-28T20:07:38.242Z,23.23
2017-10-28T20:10:05.772Z,22.40
2017-10-28T20:12:33.337Z,28.67
2017-10-28T20:15:00.870Z,21.77
2017-10-28T20:17:28.453Z,31.07
2017-10-28T20:19:55.986Z,23.67
2017-10-28T20:22:24.305Z,28.30
2017-10-28T20:24:51.866Z,25.63
2017-10-28T20:27:19.396Z,21.00
2017-10-28T20:29:46.965Z,23.03
2017-10-28T20:32:14.491Z,23.73
2017-10-28T20:34:42.037Z,30.57
2017-10-28T20:37:09.596Z,24.73
2017-10-28T20:39:37.167Z,48.83
2017-10-28T20:42:04.693Z,29.83
2017-10-28T20:44:32.278Z,24.13
2017-10-28T20:46:59.805Z,31.60
2017-10-28T20:49:27.334Z,24.20
2017-10-28T20:51:55.664Z,28.13
2017-10-28T20:54:23.242Z,25.30
2017-10-28T20:56:50.783Z,26.97
2017-10-28T20:59:18.309Z,29.63
2017-10-28T21:01:45.865Z,28.23
2017-10-28T21:04:13.389Z,24.60
2017-10-28T21:06:41.723Z,22.17
2017-10-28T21:09:10.453Z,23.57
2017-10-28T21:11:38.036Z,25.00
2017-10-28T21:14:05.771Z,27.27
2017-10-28T21:16:33.297Z,30.27
2017-10-28T21:19:00.868Z,29.23
2017-10-28T21:21:28.645Z,28.20
2017-10-28T21:23:56.226Z,27.03
2017-10-28T21:26:23.820Z,32.03
2017-10-28T21:28:51.365Z,31.23
2017-10-28T21:31:18.948Z,41.33
2017-10-28T21:33:47.246Z,35.07
2017-10-28T21:36:15.606Z,28.53
2017-10-28T21:38:43.178Z,37.57
2017-10-28T21:41:10.720Z,28.57
2017-10-28T21:43:38.282Z,40.17
2017-10-28T21:46:05.810Z,32.47
2017-10-28T21:48:33.370Z,31.30
2017-10-28T21:51:00.902Z,26.80
2017-10-28T21:53:28.470Z,32.63
2017-10-28T21:55:56.139Z,36.10
2017-10-28T21:58:23.699Z,35.20
2017-10-28T22:00:51.230Z,24.60
2017-10-28T22:03:18.812Z,39.27
2017-10-28T22:05:47.150Z,31.63
2017-10-28T22:08:14.710Z,35.53
2017-10-28T22:10:42.299Z,32.77
2017-10-28T22:13:09.825Z,27.83
2017-10-28T22:15:37.364Z,32.97
2017-10-28T22:18:04.920Z,31.40
2017-10-28T22:20:32.457Z,31.80
2017-10-28T22:23:00.802Z,28.27
2017-10-28T22:25:28.342Z,38.57
2017-10-28T22:27:55.969Z,31.80
2017-10-28T22:30:23.540Z,29.73
2017-10-28T22:32:51.105Z,29.90
2017-10-28T22:35:18.664Z,25.37
2017-10-28T22:37:46.953Z,34.03
2017-10-28T22:40:14.533Z,26.67
2017-10-28T22:42:42.065Z,30.27
2017-10-28T22:45:09.590Z,28.10
2017-10-28T22:47:37.174Z,31.93
2017-10-28T22:50:05.462Z,27.83
2017-10-28T22:52:33.750Z,28.13
2017-10-28T22:55:01.309Z,30.77
2017-10-28T22:57:28.880Z,24.63
2017-10-28T22:59:56.403Z,34.43
2017-10-28T23:02:23.921Z,29.90
2017-10-28T23:04:51.490Z,35.57
2017-10-28T23:07:19.063Z,26.97
2017-10-28T23:09:46.586Z,26.63
2017-10-28T23:12:14.115Z,32.83
2017-10-28T23:14:41.675Z,23.67
2017-10-28T23:17:09.209Z,26.43
2017-10-28T23:19:36.773Z,25.00
2017-10-28T23:22:04.303Z,24.43
2017-10-28T23:24:31.865Z,30.50
2017-10-28T23:26:59.397Z,26.10
2017-10-28T23:29:26.984Z,25.13
2017-10-28T23:31:55.281Z,27.13
2017-10-28T23:34:23.571Z,27.90
2017-10-28T23:36:51.918Z,28.67
2017-10-28T23:39:19.451Z,21.27
2017-10-28T23:41:46.986Z,25.50
2017-10-28T23:44:14.557Z,24.33
2017-10-28T23:46:42.089Z,19.10
2017-10-28T23:49:09.650Z,34.30
2017-10-28T23:51:37.174Z,22.73
2017-10-28T23:54:04.734Z,19.53
2017-10-28T23:56:32.253Z,27.30
2017-10-28T23:58:59.814Z,23.10
